sensor_id;sensor_type;location;lat;lon;timestamp;P1;durP1;ratioP1;P2;durP2;ratioP2
17991;SDS011;9121;50.926;5.340;2024-03-23T00:55:21;13.63;;;4.23;;
17991;SDS011;9121;50.926;5.340;2024-03-23T00:57:48;12.73;;;4.17;;
17991;SDS011;9121;50.926;5.340;2024-03-23T01:00:14;22.70;;;4.30;;
17991;SDS011;9121;50.926;5.340;2024-03-23T01:02:41;17.10;;;5.07;;
17991;SDS011;9121;50.926;5.340;2024-03-23T01:05:07;20.40;;;4.63;;
17991;SDS011;9121;50.926;5.340;2024-03-23T01:07:34;14.83;;;4.30;;
17991;SDS011;9121;50.926;5.340;2024-03-23T01:10:00;14.60;;;3.60;;
17991;SDS011;9121;50.926;5.340;2024-03-23T01:12:29;16.97;;;3.87;;
17991;SDS011;9121;50.926;5.340;2024-03-23T01:14:54;12.00;;;3.43;;
17991;SDS011;9121;50.926;5.340;2024-03-23T01:17:21;18.40;;;4.50;;
17991;SDS011;9121;50.926;5.340;2024-03-23T01:19:47;15.67;;;4.03;;
17991;SDS011;9121;50.926;5.340;2024-03-23T01:22:14;15.00;;;4.03;;
17991;SDS011;9121;50.926;5.340;2024-03-23T01:24:40;18.87;;;4.70;;
17991;SDS011;9121;50.926;5.340;2024-03-23T01:27:08;19.40;;;4.97;;
17991;SDS011;9121;50.926;5.340;2024-03-23T01:29:35;18.40;;;4.57;;
17991;SDS011;9121;50.926;5.340;2024-03-23T01:32:02;17.20;;;4.00;;
17991;SDS011;9121;50.926;5.340;2024-03-23T01:34:28;20.37;;;4.93;;
17991;SDS011;9121;50.926;5.340;2024-03-23T01:36:55;13.47;;;3.83;;
17991;SDS011;9121;50.926;5.340;2024-03-23T01:39:21;15.53;;;3.93;;
17991;SDS011;9121;50.926;5.340;2024-03-23T01:41:48;16.20;;;3.97;;
17991;SDS011;9121;50.926;5.340;2024-03-23T01:44:14;13.60;;;3.53;;
17991;SDS011;9121;50.926;5.340;2024-03-23T01:46:43;20.60;;;3.97;;
17991;SDS011;9121;50.926;5.340;2024-03-23T01:49:10;20.27;;;3.83;;
17991;SDS011;9121;50.926;5.340;2024-03-23T01:51:38;13.37;;;4.23;;
17991;SDS011;9121;50.926;5.340;2024-03-23T01:54:05;13.47;;;4.07;;
17991;SDS011;9121;50.926;5.340;2024-03-23T01:56:33;17.60;;;4.13;;
17991;SDS011;9121;50.926;5.340;2024-03-23T01:59:00;19.87;;;4.67;;
17991;SDS011;9121;50.926;5.340;2024-03-23T02:01:27;17.83;;;4.37;;
17991;SDS011;9121;50.926;5.340;2024-03-23T02:03:54;24.03;;;4.30;;
17991;SDS011;9121;50.926;5.340;2024-03-23T02:06:21;18.27;;;3.97;;
17991;SDS011;9121;50.926;5.340;2024-03-23T02:08:47;22.67;;;4.80;;
17991;SDS011;9121;50.926;5.340;2024-03-23T02:11:14;14.63;;;4.10;;
17991;SDS011;9121;50.926;5.340;2024-03-23T02:13:40;15.47;;;4.37;;
17991;SDS011;9121;50.926;5.340;2024-03-23T02:16:07;21.17;;;4.63;;
17991;SDS011;9121;50.926;5.340;2024-03-23T02:18:34;19.33;;;4.90;;
17991;SDS011;9121;50.926;5.340;2024-03-23T02:21:03;22.73;;;4.67;;
17991;SDS011;9121;50.926;5.340;2024-03-23T02:23:30;25.63;;;4.67;;
17991;SDS011;9121;50.926;5.340;2024-03-23T02:25:57;14.17;;;3.77;;
17991;SDS011;9121;50.926;5.340;2024-03-23T02:28:23;14.20;;;4.03;;
17991;SDS011;9121;50.926;5.340;2024-03-23T02:30:50;17.57;;;4.80;;
17991;SDS011;9121;50.926;5.340;2024-03-23T02:33:16;23.70;;;4.70;;
17991;SDS011;9121;50.926;5.340;2024-03-23T02:35:43;16.73;;;4.23;;
17991;SDS011;9121;50.926;5.340;2024-03-23T02:38:10;18.07;;;4.73;;
17991;SDS011;9121;50.926;5.340;2024-03-23T02:40:38;17.67;;;5.07;;
17991;SDS011;9121;50.926;5.340;2024-03-23T02:43:04;19.87;;;4.33;;
17991;SDS011;9121;50.926;5.340;2024-03-23T02:45:31;20.23;;;4.23;;
17991;SDS011;9121;50.926;5.340;2024-03-23T02:47:57;22.27;;;4.60;;
17991;SDS011;9121;50.926;5.340;2024-03-23T02:50:24;18.27;;;4.13;;
17991;SDS011;9121;50.926;5.340;2024-03-23T02:52:49;26.80;;;5.13;;
17991;SDS011;9121;50.926;5.340;2024-03-23T02:55:16;25.73;;;4.93;;
17991;SDS011;9121;50.926;5.340;2024-03-23T02:57:44;22.00;;;4.73;;
17991;SDS011;9121;50.926;5.340;2024-03-23T03:00:11;21.00;;;4.67;;
17991;SDS011;9121;50.926;5.340;2024-03-23T03:02:37;17.33;;;4.13;;
17991;SDS011;9121;50.926;5.340;2024-03-23T03:05:05;21.83;;;5.57;;
17991;SDS011;9121;50.926;5.340;2024-03-23T03:07:31;19.27;;;4.90;;
17991;SDS011;9121;50.926;5.340;2024-03-23T03:09:58;21.43;;;4.80;;
17991;SDS011;9121;50.926;5.340;2024-03-23T03:12:24;18.27;;;4.93;;
17991;SDS011;9121;50.926;5.340;2024-03-23T03:14:53;22.90;;;5.47;;
17991;SDS011;9121;50.926;5.340;2024-03-23T03:17:19;25.37;;;5.03;;
17991;SDS011;9121;50.926;5.340;2024-03-23T03:19:46;23.97;;;5.60;;
17991;SDS011;9121;50.926;5.340;2024-03-23T03:22:12;17.77;;;4.70;;
17991;SDS011;9121;50.926;5.340;2024-03-23T03:24:39;17.40;;;4.80;;
17991;SDS011;9121;50.926;5.340;2024-03-23T03:27:05;20.70;;;4.70;;
17991;SDS011;9121;50.926;5.340;2024-03-23T03:29:32;18.53;;;4.60;;
17991;SDS011;9121;50.926;5.340;2024-03-23T03:32:02;23.23;;;4.80;;
17991;SDS011;9121;50.926;5.340;2024-03-23T03:34:29;19.23;;;4.60;;
17991;SDS011;9121;50.926;5.340;2024-03-23T03:36:56;18.30;;;4.50;;
17991;SDS011;9121;50.926;5.340;2024-03-23T03:39:24;16.27;;;4.47;;
17991;SDS011;9121;50.926;5.340;2024-03-23T03:41:50;15.23;;;4.00;;
17991;SDS011;9121;50.926;5.340;2024-03-23T03:44:17;20.53;;;4.43;;
17991;SDS011;9121;50.926;5.340;2024-03-23T03:46:43;15.83;;;4.87;;
17991;SDS011;9121;50.926;5.340;2024-03-23T03:49:11;17.30;;;4.27;;
17991;SDS011;9121;50.926;5.340;2024-03-23T03:51:37;18.83;;;4.07;;
17991;SDS011;9121;50.926;5.340;2024-03-23T03:54:04;14.47;;;3.90;;
17991;SDS011;9121;50.926;5.340;2024-03-23T03:56:30;23.37;;;4.60;;
17991;SDS011;9121;50.926;5.340;2024-03-23T03:58:57;15.83;;;4.20;;
17991;SDS011;9121;50.926;5.340;2024-03-23T04:01:23;15.90;;;4.27;;
17991;SDS011;9121;50.926;5.340;2024-03-23T04:03:50;20.70;;;4.70;;
17991;SDS011;9121;50.926;5.340;2024-03-23T04:06:19;13.63;;;4.20;;
17991;SDS011;9121;50.926;5.340;2024-03-23T04:08:47;17.77;;;4.53;;
17991;SDS011;9121;50.926;5.340;2024-03-23T04:11:13;15.50;;;4.03;;
17991;SDS011;9121;50.926;5.340;2024-03-23T04:13:40;17.07;;;4.40;;
17991;SDS011;9121;50.926;5.340;2024-03-23T04:16:06;16.83;;;4.83;;
17991;SDS011;9121;50.926;5.340;2024-03-23T04:18:34;23.33;;;5.13;;
17991;SDS011;9121;50.926;5.340;2024-03-23T04:21:00;17.53;;;5.37;;
17991;SDS011;9121;50.926;5.340;2024-03-23T04:23:29;24.00;;;4.83;;
17991;SDS011;9121;50.926;5.340;2024-03-23T04:25:55;20.97;;;4.30;;
17991;SDS011;9121;50.926;5.340;2024-03-23T04:28:22;15.83;;;4.73;;
17991;SDS011;9121;50.926;5.340;2024-03-23T04:30:47;20.37;;;5.00;;
17991;SDS011;9121;50.926;5.340;2024-03-23T04:33:15;16.67;;;4.87;;
17991;SDS011;9121;50.926;5.340;2024-03-23T04:35:41;26.17;;;6.20;;
17991;SDS011;9121;50.926;5.340;2024-03-23T04:38:07;17.37;;;5.73;;
17991;SDS011;9121;50.926;5.340;2024-03-23T04:40:36;25.23;;;6.50;;
17991;SDS011;9121;50.926;5.340;2024-03-23T04:43:03;22.80;;;5.77;;
17991;SDS011;9121;50.926;5.340;2024-03-23T04:45:30;24.03;;;6.20;;
17991;SDS011;9121;50.926;5.340;2024-03-23T04:47:57;19.50;;;5.47;;
17991;SDS011;9121;50.926;5.340;2024-03-23T04:50:24;19.17;;;5.63;;
17991;SDS011;9121;50.926;5.340;2024-03-23T04:52:51;16.77;;;6.47;;
17991;SDS011;9121;50.926;5.340;2024-03-23T04:55:18;18.67;;;6.37;;
17991;SDS011;9121;50.926;5.340;2024-03-23T04:57:45;20.13;;;6.73;;
17991;SDS011;9121;50.926;5.340;2024-03-23T05:00:12;22.77;;;6.70;;
17991;SDS011;9121;50.926;5.340;2024-03-23T05:02:43;23.13;;;6.97;;
17991;SDS011;9121;50.926;5.340;2024-03-23T05:05:11;25.47;;;7.33;;
17991;SDS011;9121;50.926;5.340;2024-03-23T05:07:37;26.73;;;6.27;;
17991;SDS011;9121;50.926;5.340;2024-03-23T05:10:04;21.27;;;7.33;;
17991;SDS011;9121;50.926;5.340;2024-03-23T05:12:31;25.37;;;7.17;;
17991;SDS011;9121;50.926;5.340;2024-03-23T05:14:59;26.47;;;8.23;;
17991;SDS011;9121;50.926;5.340;2024-03-23T05:17:25;27.40;;;8.27;;
17991;SDS011;9121;50.926;5.340;2024-03-23T05:19:52;27.10;;;8.40;;
17991;SDS011;9121;50.926;5.340;2024-03-23T05:22:18;24.97;;;7.40;;
17991;SDS011;9121;50.926;5.340;2024-03-23T05:24:45;24.53;;;8.07;;
17991;SDS011;9121;50.926;5.340;2024-03-23T05:27:11;28.67;;;8.73;;
17991;SDS011;9121;50.926;5.340;2024-03-23T05:29:37;29.27;;;9.17;;
17991;SDS011;9121;50.926;5.340;2024-03-23T05:32:05;24.53;;;9.77;;
17991;SDS011;9121;50.926;5.340;2024-03-23T05:34:32;28.83;;;9.93;;
17991;SDS011;9121;50.926;5.340;2024-03-23T05:36:58;31.10;;;9.37;;
17991;SDS011;9121;50.926;5.340;2024-03-23T05:39:25;26.73;;;9.30;;
17991;SDS011;9121;50.926;5.340;2024-03-23T05:41:51;24.03;;;9.17;;
17991;SDS011;9121;50.926;5.340;2024-03-23T05:44:18;25.40;;;9.23;;
17991;SDS011;9121;50.926;5.340;2024-03-23T05:46:44;30.87;;;9.40;;
17991;SDS011;9121;50.926;5.340;2024-03-23T05:49:15;30.07;;;9.47;;
17991;SDS011;9121;50.926;5.340;2024-03-23T05:51:41;28.40;;;10.00;;
17991;SDS011;9121;50.926;5.340;2024-03-23T05:54:08;22.23;;;9.73;;
17991;SDS011;9121;50.926;5.340;2024-03-23T05:56:34;29.50;;;9.00;;
17991;SDS011;9121;50.926;5.340;2024-03-23T05:59:01;31.67;;;8.93;;
17991;SDS011;9121;50.926;5.340;2024-03-23T06:01:28;25.47;;;9.33;;
17991;SDS011;9121;50.926;5.340;2024-03-23T06:03:57;29.73;;;8.20;;
17991;SDS011;9121;50.926;5.340;2024-03-23T06:06:25;26.03;;;8.37;;
17991;SDS011;9121;50.926;5.340;2024-03-23T06:08:52;32.53;;;9.00;;
17991;SDS011;9121;50.926;5.340;2024-03-23T06:11:17;25.43;;;8.43;;
17991;SDS011;9121;50.926;5.340;2024-03-23T06:13:44;21.90;;;7.93;;
17991;SDS011;9121;50.926;5.340;2024-03-23T06:16:10;26.97;;;8.33;;
17991;SDS011;9121;50.926;5.340;2024-03-23T06:18:37;21.23;;;7.57;;
17991;SDS011;9121;50.926;5.340;2024-03-23T06:21:04;24.43;;;6.77;;
17991;SDS011;9121;50.926;5.340;2024-03-23T06:23:32;27.13;;;8.23;;
17991;SDS011;9121;50.926;5.340;2024-03-23T06:25:58;22.73;;;7.77;;
17991;SDS011;9121;50.926;5.340;2024-03-23T06:28:25;22.60;;;7.60;;
17991;SDS011;9121;50.926;5.340;2024-03-23T06:30:51;33.63;;;8.33;;
17991;SDS011;9121;50.926;5.340;2024-03-23T06:33:18;24.40;;;7.93;;
17991;SDS011;9121;50.926;5.340;2024-03-23T06:35:49;31.47;;;8.13;;
17991;SDS011;9121;50.926;5.340;2024-03-23T06:38:17;23.40;;;8.40;;
17991;SDS011;9121;50.926;5.340;2024-03-23T06:40:44;29.43;;;8.97;;
17991;SDS011;9121;50.926;5.340;2024-03-23T06:43:13;27.63;;;8.80;;
17991;SDS011;9121;50.926;5.340;2024-03-23T06:45:39;23.73;;;8.60;;
17991;SDS011;9121;50.926;5.340;2024-03-23T06:48:06;24.10;;;8.57;;
17991;SDS011;9121;50.926;5.340;2024-03-23T06:50:33;23.07;;;8.77;;
17991;SDS011;9121;50.926;5.340;2024-03-23T06:53:00;27.50;;;9.13;;
17991;SDS011;9121;50.926;5.340;2024-03-23T06:55:27;24.70;;;8.67;;
17991;SDS011;9121;50.926;5.340;2024-03-23T06:57:55;26.97;;;9.27;;
17991;SDS011;9121;50.926;5.340;2024-03-23T07:00:22;23.63;;;8.63;;
17991;SDS011;9121;50.926;5.340;2024-03-23T07:02:50;28.20;;;9.27;;
17991;SDS011;9121;50.926;5.340;2024-03-23T07:05:16;28.80;;;8.53;;
17991;SDS011;9121;50.926;5.340;2024-03-23T07:07:43;22.00;;;8.30;;
17991;SDS011;9121;50.926;5.340;2024-03-23T07:10:09;22.47;;;7.47;;
17991;SDS011;9121;50.926;5.340;2024-03-23T07:12:36;24.43;;;8.00;;
17991;SDS011;9121;50.926;5.340;2024-03-23T07:15:04;28.53;;;8.27;;
17991;SDS011;9121;50.926;5.340;2024-03-23T07:17:31;26.13;;;8.30;;
17991;SDS011;9121;50.926;5.340;2024-03-23T07:19:58;20.37;;;7.93;;
17991;SDS011;9121;50.926;5.340;2024-03-23T07:22:26;27.53;;;8.43;;
17991;SDS011;9121;50.926;5.340;2024-03-23T07:24:52;27.80;;;8.43;;
17991;SDS011;9121;50.926;5.340;2024-03-23T07:27:19;24.70;;;7.67;;
17991;SDS011;9121;50.926;5.340;2024-03-23T07:29:45;23.07;;;7.23;;
17991;SDS011;9121;50.926;5.340;2024-03-23T07:32:13;18.93;;;6.67;;
17991;SDS011;9121;50.926;5.340;2024-03-23T07:34:39;22.97;;;6.37;;
17991;SDS011;9121;50.926;5.340;2024-03-23T07:37:08;20.00;;;5.97;;
17991;SDS011;9121;50.926;5.340;2024-03-23T07:39:34;20.90;;;6.00;;
17991;SDS011;9121;50.926;5.340;2024-03-23T07:42:02;18.73;;;5.73;;
17991;SDS011;9121;50.926;5.340;2024-03-23T07:44:28;23.13;;;5.43;;
17991;SDS011;9121;50.926;5.340;2024-03-23T07:46:55;17.03;;;5.30;;
17991;SDS011;9121;50.926;5.340;2024-03-23T07:49:22;20.80;;;4.57;;
17991;SDS011;9121;50.926;5.340;2024-03-23T07:51:49;20.00;;;5.80;;
17991;SDS011;9121;50.926;5.340;2024-03-23T07:54:15;22.27;;;5.23;;
17991;SDS011;9121;50.926;5.340;2024-03-23T07:56:42;17.53;;;4.77;;
17991;SDS011;9121;50.926;5.340;2024-03-23T07:59:08;16.17;;;4.50;;
17991;SDS011;9121;50.926;5.340;2024-03-23T08:01:36;20.33;;;4.13;;
17991;SDS011;9121;50.926;5.340;2024-03-23T08:04:01;19.57;;;4.17;;
17991;SDS011;9121;50.926;5.340;2024-03-23T08:06:30;13.33;;;4.20;;
17991;SDS011;9121;50.926;5.340;2024-03-23T08:08:56;18.90;;;4.70;;
17991;SDS011;9121;50.926;5.340;2024-03-23T08:11:25;17.53;;;4.30;;
17991;SDS011;9121;50.926;5.340;2024-03-23T08:13:52;14.23;;;3.53;;
17991;SDS011;9121;50.926;5.340;2024-03-23T08:16:19;18.70;;;4.20;;
17991;SDS011;9121;50.926;5.340;2024-03-23T08:18:45;14.73;;;3.87;;
17991;SDS011;9121;50.926;5.340;2024-03-23T08:21:12;21.00;;;3.70;;
17991;SDS011;9121;50.926;5.340;2024-03-23T08:23:39;18.43;;;3.43;;
17991;SDS011;9121;50.926;5.340;2024-03-23T08:26:07;17.53;;;4.60;;
17991;SDS011;9121;50.926;5.340;2024-03-23T08:28:34;21.03;;;4.43;;
17991;SDS011;9121;50.926;5.340;2024-03-23T08:31:01;15.53;;;4.20;;
17991;SDS011;9121;50.926;5.340;2024-03-23T08:33:30;19.70;;;4.50;;
17991;SDS011;9121;50.926;5.340;2024-03-23T08:35:58;12.03;;;4.17;;
17991;SDS011;9121;50.926;5.340;2024-03-23T08:38:24;14.40;;;3.13;;
17991;SDS011;9121;50.926;5.340;2024-03-23T08:40:57;21.80;;;3.80;;
17991;SDS011;9121;50.926;5.340;2024-03-23T08:43:24;15.23;;;3.50;;
17991;SDS011;9121;50.926;5.340;2024-03-23T08:45:51;18.97;;;3.53;;
17991;SDS011;9121;50.926;5.340;2024-03-23T08:48:18;7.30;;;3.00;;
17991;SDS011;9121;50.926;5.340;2024-03-23T08:50:46;11.53;;;3.00;;
17991;SDS011;9121;50.926;5.340;2024-03-23T08:53:12;8.83;;;2.83;;
17991;SDS011;9121;50.926;5.340;2024-03-23T08:55:40;12.97;;;3.00;;
17991;SDS011;9121;50.926;5.340;2024-03-23T08:58:08;8.30;;;2.67;;
17991;SDS011;9121;50.926;5.340;2024-03-23T09:00:35;13.80;;;2.90;;
17991;SDS011;9121;50.926;5.340;2024-03-23T09:03:01;8.67;;;2.30;;
17991;SDS011;9121;50.926;5.340;2024-03-23T09:05:29;8.57;;;2.70;;
17991;SDS011;9121;50.926;5.340;2024-03-23T09:08:01;11.10;;;2.80;;
17991;SDS011;9121;50.926;5.340;2024-03-23T09:10:28;11.23;;;2.70;;
17991;SDS011;9121;50.926;5.340;2024-03-23T09:12:54;9.03;;;2.87;;
17991;SDS011;9121;50.926;5.340;2024-03-23T09:15:22;10.73;;;2.70;;
17991;SDS011;9121;50.926;5.340;2024-03-23T09:17:48;14.03;;;3.00;;
17991;SDS011;9121;50.926;5.340;2024-03-23T09:20:16;12.93;;;3.20;;
17991;SDS011;9121;50.926;5.340;2024-03-23T09:22:42;17.60;;;3.23;;
17991;SDS011;9121;50.926;5.340;2024-03-23T09:25:09;12.67;;;2.97;;
17991;SDS011;9121;50.926;5.340;2024-03-23T09:27:34;14.50;;;3.27;;
17991;SDS011;9121;50.926;5.340;2024-03-23T09:30:01;14.40;;;2.80;;
17991;SDS011;9121;50.926;5.340;2024-03-23T09:32:29;12.97;;;2.83;;
17991;SDS011;9121;50.926;5.340;2024-03-23T09:34:56;14.40;;;2.77;;
17991;SDS011;9121;50.926;5.340;2024-03-23T09:37:22;9.47;;;2.47;;
17991;SDS011;9121;50.926;5.340;2024-03-23T09:39:49;18.20;;;2.67;;
17991;SDS011;9121;50.926;5.340;2024-03-23T09:42:15;12.97;;;2.97;;
17991;SDS011;9121;50.926;5.340;2024-03-23T09:44:43;18.93;;;2.30;;
17991;SDS011;9121;50.926;5.340;2024-03-23T09:47:09;12.27;;;2.97;;
17991;SDS011;9121;50.926;5.340;2024-03-23T09:49:38;10.97;;;3.33;;
17991;SDS011;9121;50.926;5.340;2024-03-23T09:52:05;12.73;;;3.10;;
17991;SDS011;9121;50.926;5.340;2024-03-23T09:54:33;11.30;;;2.53;;
17991;SDS011;9121;50.926;5.340;2024-03-23T09:56:59;16.77;;;2.70;;
17991;SDS011;9121;50.926;5.340;2024-03-23T09:59:26;15.27;;;2.77;;
17991;SDS011;9121;50.926;5.340;2024-03-23T10:01:52;15.57;;;2.90;;
17991;SDS011;9121;50.926;5.340;2024-03-23T10:04:37;14.23;;;2.70;;
17991;SDS011;9121;50.926;5.340;2024-03-23T10:07:13;15.57;;;2.87;;
17991;SDS011;9121;50.926;5.340;2024-03-23T10:09:42;11.87;;;2.80;;
17991;SDS011;9121;50.926;5.340;2024-03-23T10:12:08;11.90;;;2.73;;
17991;SDS011;9121;50.926;5.340;2024-03-23T10:14:37;11.43;;;2.87;;
17991;SDS011;9121;50.926;5.340;2024-03-23T10:17:13;12.63;;;2.83;;
17991;SDS011;9121;50.926;5.340;2024-03-23T10:19:44;8.13;;;2.93;;
17991;SDS011;9121;50.926;5.340;2024-03-23T10:22:13;12.47;;;2.43;;
17991;SDS011;9121;50.926;5.340;2024-03-23T10:24:41;8.23;;;2.77;;
17991;SDS011;9121;50.926;5.340;2024-03-23T10:27:07;13.00;;;2.20;;
17991;SDS011;9121;50.926;5.340;2024-03-23T10:29:34;14.93;;;2.50;;
17991;SDS011;9121;50.926;5.340;2024-03-23T10:32:09;11.63;;;2.57;;
17991;SDS011;9121;50.926;5.340;2024-03-23T10:34:36;10.20;;;2.37;;
17991;SDS011;9121;50.926;5.340;2024-03-23T10:37:04;10.17;;;2.23;;
17991;SDS011;9121;50.926;5.340;2024-03-23T10:39:32;11.97;;;2.90;;
17991;SDS011;9121;50.926;5.340;2024-03-23T10:42:00;15.20;;;3.77;;
17991;SDS011;9121;50.926;5.340;2024-03-23T10:44:28;11.60;;;2.27;;
17991;SDS011;9121;50.926;5.340;2024-03-23T10:46:56;16.80;;;2.93;;
17991;SDS011;9121;50.926;5.340;2024-03-23T10:49:26;9.32;;;2.08;;
17991;SDS011;9121;50.926;5.340;2024-03-23T10:51:54;11.60;;;2.13;;
17991;SDS011;9121;50.926;5.340;2024-03-23T10:54:25;7.30;;;2.20;;
17991;SDS011;9121;50.926;5.340;2024-03-23T10:56:52;6.30;;;1.30;;
17991;SDS011;9121;50.926;5.340;2024-03-23T10:59:23;4.93;;;1.30;;
17991;SDS011;9121;50.926;5.340;2024-03-23T11:01:53;11.03;;;1.67;;
17991;SDS011;9121;50.926;5.340;2024-03-23T11:04:30;4.33;;;1.60;;
17991;SDS011;9121;50.926;5.340;2024-03-23T11:06:57;4.40;;;1.40;;
17991;SDS011;9121;50.926;5.340;2024-03-23T11:09:41;4.80;;;1.73;;
17991;SDS011;9121;50.926;5.340;2024-03-23T11:12:25;9.53;;;2.13;;
17991;SDS011;9121;50.926;5.340;2024-03-23T11:14:56;4.83;;;1.83;;
17991;SDS011;9121;50.926;5.340;2024-03-23T11:17:24;7.30;;;1.80;;
17991;SDS011;9121;50.926;5.340;2024-03-23T11:19:53;8.90;;;2.50;;
17991;SDS011;9121;50.926;5.340;2024-03-23T11:25:12;6.57;;;2.20;;
17991;SDS011;9121;50.926;5.340;2024-03-23T11:27:42;6.17;;;1.97;;
17991;SDS011;9121;50.926;5.340;2024-03-23T11:30:11;4.93;;;1.83;;
17991;SDS011;9121;50.926;5.340;2024-03-23T11:32:38;9.33;;;2.10;;
17991;SDS011;9121;50.926;5.340;2024-03-23T11:35:06;11.87;;;2.40;;
17991;SDS011;9121;50.926;5.340;2024-03-23T11:37:32;12.07;;;1.97;;
17991;SDS011;9121;50.926;5.340;2024-03-23T11:39:59;7.10;;;2.13;;
17991;SDS011;9121;50.926;5.340;2024-03-23T11:42:28;4.60;;;1.97;;
17991;SDS011;9121;50.926;5.340;2024-03-23T11:44:54;8.77;;;1.87;;
17991;SDS011;9121;50.926;5.340;2024-03-23T11:47:20;10.70;;;2.40;;
17991;SDS011;9121;50.926;5.340;2024-03-23T11:49:48;10.60;;;2.80;;
17991;SDS011;9121;50.926;5.340;2024-03-23T11:52:14;10.53;;;3.13;;
17991;SDS011;9121;50.926;5.340;2024-03-23T11:54:43;7.73;;;2.63;;
17991;SDS011;9121;50.926;5.340;2024-03-23T11:57:09;33.33;;;5.57;;
17991;SDS011;9121;50.926;5.340;2024-03-23T11:59:37;8.13;;;2.23;;
17991;SDS011;9121;50.926;5.340;2024-03-23T12:02:09;7.50;;;2.20;;
17991;SDS011;9121;50.926;5.340;2024-03-23T12:04:36;6.87;;;1.70;;
17991;SDS011;9121;50.926;5.340;2024-03-23T12:07:09;7.20;;;1.30;;
17991;SDS011;9121;50.926;5.340;2024-03-23T12:09:37;5.50;;;1.67;;
17991;SDS011;9121;50.926;5.340;2024-03-23T12:12:10;2.37;;;1.40;;
17991;SDS011;9121;50.926;5.340;2024-03-23T12:14:42;4.73;;;1.70;;
17991;SDS011;9121;50.926;5.340;2024-03-23T12:17:12;8.40;;;1.60;;
17991;SDS011;9121;50.926;5.340;2024-03-23T12:19:39;3.47;;;1.53;;
17991;SDS011;9121;50.926;5.340;2024-03-23T12:22:06;5.67;;;1.77;;
17991;SDS011;9121;50.926;5.340;2024-03-23T12:24:33;5.37;;;1.50;;
17991;SDS011;9121;50.926;5.340;2024-03-23T12:27:01;4.27;;;1.50;;
17991;SDS011;9121;50.926;5.340;2024-03-23T12:29:28;5.77;;;1.60;;
17991;SDS011;9121;50.926;5.340;2024-03-23T12:31:56;7.37;;;1.80;;
17991;SDS011;9121;50.926;5.340;2024-03-23T12:34:25;6.20;;;2.10;;
17991;SDS011;9121;50.926;5.340;2024-03-23T12:36:51;142.23;;;12.83;;
17991;SDS011;9121;50.926;5.340;2024-03-23T12:39:18;8.87;;;1.90;;
17991;SDS011;9121;50.926;5.340;2024-03-23T12:41:44;7.23;;;1.93;;
17991;SDS011;9121;50.926;5.340;2024-03-23T12:44:11;6.70;;;2.20;;
17991;SDS011;9121;50.926;5.340;2024-03-23T12:46:37;6.17;;;2.10;;
17991;SDS011;9121;50.926;5.340;2024-03-23T12:49:06;6.53;;;2.00;;
17991;SDS011;9121;50.926;5.340;2024-03-23T12:51:31;17.40;;;3.33;;
17991;SDS011;9121;50.926;5.340;2024-03-23T12:53:58;10.63;;;2.70;;
17991;SDS011;9121;50.926;5.340;2024-03-23T12:56:24;9.57;;;2.57;;
17991;SDS011;9121;50.926;5.340;2024-03-23T12:58:53;5.93;;;2.27;;
17991;SDS011;9121;50.926;5.340;2024-03-23T13:01:20;8.80;;;2.40;;
17991;SDS011;9121;50.926;5.340;2024-03-23T13:03:47;15.67;;;3.33;;
17991;SDS011;9121;50.926;5.340;2024-03-23T13:06:15;8.43;;;1.90;;
17991;SDS011;9121;50.926;5.340;2024-03-23T13:08:43;8.53;;;1.70;;
17991;SDS011;9121;50.926;5.340;2024-03-23T13:11:10;6.47;;;1.93;;
17991;SDS011;9121;50.926;5.340;2024-03-23T13:13:37;7.60;;;1.80;;
17991;SDS011;9121;50.926;5.340;2024-03-23T13:16:03;8.60;;;1.97;;
17991;SDS011;9121;50.926;5.340;2024-03-23T13:18:30;8.33;;;2.10;;
17991;SDS011;9121;50.926;5.340;2024-03-23T13:20:57;6.90;;;1.67;;
17991;SDS011;9121;50.926;5.340;2024-03-23T13:23:25;7.57;;;1.87;;
17991;SDS011;9121;50.926;5.340;2024-03-23T13:25:51;6.77;;;2.10;;
17991;SDS011;9121;50.926;5.340;2024-03-23T13:28:19;6.47;;;1.50;;
17991;SDS011;9121;50.926;5.340;2024-03-23T13:30:51;8.93;;;2.27;;
17991;SDS011;9121;50.926;5.340;2024-03-23T13:33:18;8.60;;;1.97;;
17991;SDS011;9121;50.926;5.340;2024-03-23T13:35:50;6.23;;;1.60;;
17991;SDS011;9121;50.926;5.340;2024-03-23T13:38:17;7.33;;;2.20;;
17991;SDS011;9121;50.926;5.340;2024-03-23T13:40:52;13.23;;;2.03;;
17991;SDS011;9121;50.926;5.340;2024-03-23T13:43:20;9.63;;;1.90;;
17991;SDS011;9121;50.926;5.340;2024-03-23T13:45:46;5.57;;;1.63;;
17991;SDS011;9121;50.926;5.340;2024-03-23T13:48:14;5.30;;;1.30;;
17991;SDS011;9121;50.926;5.340;2024-03-23T13:50:40;7.78;;;1.92;;
17991;SDS011;9121;50.926;5.340;2024-03-23T13:53:08;5.70;;;1.67;;
17991;SDS011;9121;50.926;5.340;2024-03-23T13:55:34;5.00;;;1.60;;
17991;SDS011;9121;50.926;5.340;2024-03-23T13:58:02;6.72;;;1.98;;
17991;SDS011;9121;50.926;5.340;2024-03-23T14:00:29;7.32;;;1.55;;
17991;SDS011;9121;50.926;5.340;2024-03-23T14:02:57;5.60;;;1.85;;
17991;SDS011;9121;50.926;5.340;2024-03-23T14:05:23;6.33;;;1.43;;
17991;SDS011;9121;50.926;5.340;2024-03-23T14:07:50;4.80;;;1.38;;
17991;SDS011;9121;50.926;5.340;2024-03-23T14:10:16;3.93;;;1.70;;
17991;SDS011;9121;50.926;5.340;2024-03-23T14:12:43;3.40;;;1.53;;
17991;SDS011;9121;50.926;5.340;2024-03-23T14:15:10;3.28;;;1.55;;
17991;SDS011;9121;50.926;5.340;2024-03-23T14:17:37;5.00;;;1.47;;
17991;SDS011;9121;50.926;5.340;2024-03-23T14:20:04;5.60;;;1.57;;
17991;SDS011;9121;50.926;5.340;2024-03-23T14:22:34;3.60;;;1.10;;
17991;SDS011;9121;50.926;5.340;2024-03-23T14:25:00;1.67;;;0.90;;
17991;SDS011;9121;50.926;5.340;2024-03-23T14:27:27;4.87;;;1.03;;
17991;SDS011;9121;50.926;5.340;2024-03-23T14:29:52;3.27;;;1.17;;
17991;SDS011;9121;50.926;5.340;2024-03-23T14:32:22;2.30;;;0.90;;
17991;SDS011;9121;50.926;5.340;2024-03-23T14:34:48;3.30;;;1.30;;
17991;SDS011;9121;50.926;5.340;2024-03-23T14:37:17;4.87;;;1.10;;
17991;SDS011;9121;50.926;5.340;2024-03-23T14:39:42;7.32;;;1.80;;
17991;SDS011;9121;50.926;5.340;2024-03-23T14:42:10;2.50;;;1.30;;
17991;SDS011;9121;50.926;5.340;2024-03-23T14:44:36;4.22;;;1.58;;
17991;SDS011;9121;50.926;5.340;2024-03-23T14:47:03;7.43;;;1.40;;
17991;SDS011;9121;50.926;5.340;2024-03-23T14:49:30;6.75;;;1.55;;
17991;SDS011;9121;50.926;5.340;2024-03-23T14:51:58;10.13;;;2.67;;
17991;SDS011;9121;50.926;5.340;2024-03-23T14:54:24;6.25;;;2.05;;
17991;SDS011;9121;50.926;5.340;2024-03-23T14:56:51;7.30;;;2.28;;
17991;SDS011;9121;50.926;5.340;2024-03-23T14:59:17;6.88;;;2.35;;
17991;SDS011;9121;50.926;5.340;2024-03-23T15:01:45;6.60;;;2.42;;
17991;SDS011;9121;50.926;5.340;2024-03-23T15:04:10;9.13;;;2.67;;
17991;SDS011;9121;50.926;5.340;2024-03-23T15:06:39;5.97;;;2.55;;
17991;SDS011;9121;50.926;5.340;2024-03-23T15:09:05;7.25;;;3.25;;
17991;SDS011;9121;50.926;5.340;2024-03-23T15:11:32;8.93;;;2.25;;
17991;SDS011;9121;50.926;5.340;2024-03-23T15:13:58;9.00;;;2.42;;
17991;SDS011;9121;50.926;5.340;2024-03-23T15:16:25;7.57;;;1.88;;
17991;SDS011;9121;50.926;5.340;2024-03-23T15:18:51;3.90;;;1.48;;
17991;SDS011;9121;50.926;5.340;2024-03-23T15:21:18;3.43;;;1.40;;
17991;SDS011;9121;50.926;5.340;2024-03-23T15:23:47;5.70;;;1.50;;
17991;SDS011;9121;50.926;5.340;2024-03-23T15:26:14;6.83;;;1.47;;
17991;SDS011;9121;50.926;5.340;2024-03-23T15:28:41;3.73;;;1.90;;
17991;SDS011;9121;50.926;5.340;2024-03-23T15:31:28;7.07;;;1.83;;
17991;SDS011;9121;50.926;5.340;2024-03-23T15:33:54;6.43;;;1.60;;
17991;SDS011;9121;50.926;5.340;2024-03-23T15:36:21;4.67;;;1.30;;
17991;SDS011;9121;50.926;5.340;2024-03-23T15:38:48;6.67;;;1.60;;
17991;SDS011;9121;50.926;5.340;2024-03-23T15:41:15;2.83;;;1.20;;
17991;SDS011;9121;50.926;5.340;2024-03-23T15:43:41;3.87;;;1.43;;
17991;SDS011;9121;50.926;5.340;2024-03-23T15:46:08;5.20;;;1.70;;
17991;SDS011;9121;50.926;5.340;2024-03-23T15:48:35;4.30;;;1.40;;
17991;SDS011;9121;50.926;5.340;2024-03-23T15:51:03;64.23;;;28.40;;